Time;durP1;ratioP1;P1;durP2;ratioP2;P2;SDS_P1;SDS_P2;PMS_P1;PMS_P2;Temp;Humidity;BMP_temperature;BMP_pressure;BME280_temperature;BME280_humidity;BME280_pressure;Samples;Min_cycle;Max_cycle;Signal;HPM_P1;HPM_P2
2022/06/04 00:01:57;;;;;;;14.27;7.30;;;;;;;12.60;70.36;100315.75;4942590;28;20047;-81
2022/06/04 00:04:25;;;;;;;15.53;7.57;;;;;;;12.56;70.26;100312.28;4983787;28;20057;-80
2022/06/04 00:06:54;;;;;;;13.75;7.50;;;;;;;12.56;70.09;100314.00;4967192;28;20051;-82
2022/06/04 00:09:25;;;;;;;16.23;7.90;;;;;;;12.55;70.13;100318.38;4984001;28;20054;-80
2022/06/04 00:17:34;;;;;;;15.32;7.38;;;;;;;12.45;70.15;100316.59;4941771;28;20503;-82
2022/06/04 00:20:03;;;;;;;11.60;6.57;;;;;;;12.48;69.88;100303.50;4977669;28;20493;-82
2022/06/04 00:22:32;;;;;;;15.13;7.20;;;;;;;12.31;70.00;100287.75;4977794;28;20050;-81
2022/06/04 00:25:00;;;;;;;14.63;6.90;;;;;;;12.25;69.86;100279.84;4960229;28;20050;-81
2022/06/04 00:27:29;;;;;;;10.35;6.72;;;;;;;12.36;69.82;100308.72;4977528;28;20058;-83
2022/06/04 00:29:56;;;;;;;14.75;7.10;;;;;;;12.31;70.16;100302.59;4977047;28;20512;-81
2022/06/04 00:32:25;;;;;;;13.88;6.82;;;;;;;12.17;69.98;100276.34;4977306;28;20054;-81
2022/06/04 00:34:54;;;;;;;14.10;6.78;;;;;;;12.30;69.89;100312.16;4977386;28;20118;-82
2022/06/04 00:37:21;;;;;;;13.35;6.75;;;;;;;12.34;69.98;100334.03;4977354;28;20079;-82
2022/06/04 00:39:51;;;;;;;11.48;6.40;;;;;;;12.24;69.78;100310.41;4977009;28;20086;-82
2022/06/04 00:42:20;;;;;;;13.00;6.28;;;;;;;12.29;69.76;100320.91;4960283;28;20505;-81
2022/06/04 00:44:48;;;;;;;11.02;6.63;;;;;;;12.16;69.62;100288.56;4981190;28;20051;-81
2022/06/04 00:47:29;;;;;;;13.50;6.57;;;;;;;12.05;69.33;100271.94;4960872;28;20055;-82
2022/06/04 00:49:58;;;;;;;9.43;6.85;;;;;;;12.28;69.47;100320.03;4961161;28;20050;-80
2022/06/04 00:52:27;;;;;;;9.52;6.05;;;;;;;12.25;69.39;100306.06;4977076;28;20523;-82
2022/06/04 00:54:57;;;;;;;15.15;6.90;;;;;;;12.16;69.11;100299.03;4976697;28;20157;-81
2022/06/04 00:57:46;;;;;;;13.73;7.37;;;;;;;12.29;69.12;100310.44;4976908;28;20233;-82
2022/06/04 01:00:19;;;;;;;8.98;5.90;;;;;;;12.31;69.14;100311.31;4977118;28;20062;-81
2022/06/04 01:03:19;;;;;;;11.88;6.40;;;;;;;12.32;68.68;100307.81;4976690;28;20054;-81
2022/06/04 01:06:02;;;;;;;9.18;6.05;;;;;;;12.37;68.66;100306.09;4976886;28;20570;-84
2022/06/04 01:08:49;;;;;;;12.43;5.82;;;;;;;12.40;68.27;100303.47;4977274;28;20054;-84
2022/06/04 01:12:09;;;;;;;9.27;5.78;;;;;;;12.42;68.07;100303.50;4976778;28;20104;-82
2022/06/04 01:14:59;;;;;;;9.73;6.05;;;;;;;12.33;67.84;100298.22;4976373;28;20509;-85
2022/06/04 01:17:57;;;;;;;14.73;5.88;;;;;;;12.47;67.84;100309.59;4976740;28;20055;-83
2022/06/04 01:20:28;;;;;;;10.32;5.97;;;;;;;12.52;67.81;100312.22;4976620;28;20165;-79
2022/06/04 01:22:57;;;;;;;;;;;;;;;12.37;67.96;100313.06;4977051;28;20065;-80
2022/06/04 01:26:03;;;;;;;8.90;6.13;;;;;;;12.44;67.66;100301.75;4976658;28;19930;-82
2022/06/04 01:28:41;;;;;;;14.23;6.07;;;;;;;12.44;67.39;100307.00;4980460;28;20059;-79
2022/06/04 01:31:14;;;;;;;10.40;6.07;;;;;;;12.50;67.39;100288.66;4976829;28;20047;-81
2022/06/04 01:33:49;;;;;;;12.90;6.03;;;;;;;12.60;66.90;100306.13;4976324;28;20059;-81
2022/06/04 01:36:23;;;;;;;12.25;6.13;;;;;;;12.77;66.59;100328.91;4976641;28;20050;-81
2022/06/04 01:39:03;;;;;;;13.40;6.55;;;;;;;12.83;66.15;100326.28;4975940;28;20398;-81
2022/06/04 01:41:38;;;;;;;10.93;5.80;;;;;;;12.86;66.24;100321.03;4976707;28;20062;-81
2022/06/04 01:44:19;;;;;;;14.77;6.20;;;;;;;12.93;65.78;100314.06;4976601;28;20062;-81
2022/06/04 01:46:55;;;;;;;9.75;5.57;;;;;;;12.96;65.24;100320.19;4976025;28;20069;-81
2022/06/04 01:49:26;;;;;;;11.32;6.00;;;;;;;13.10;65.11;100321.06;4976229;28;20061;-82
2022/06/04 01:51:59;;;;;;;11.88;6.60;;;;;;;13.20;65.07;100326.31;4975969;28;20074;-81
2022/06/04 01:54:37;;;;;;;8.95;5.53;;;;;;;13.15;64.63;100305.34;4976052;28;20161;-82
2022/06/04 01:57:11;;;;;;;12.27;5.50;;;;;;;13.50;64.15;100328.06;4976298;28;20063;-81
2022/06/04 01:59:48;;;;;;;15.02;6.20;;;;;;;13.58;63.46;100307.09;4976049;28;20457;-81
2022/06/04 02:02:22;;;;;;;12.13;6.05;;;;;;;13.85;62.76;100335.91;4976623;28;20059;-81
2022/06/04 02:04:57;;;;;;;11.45;5.32;;;;;;;15.10;59.74;100323.03;4976498;28;20055;-81
2022/06/04 02:07:33;;;;;;;9.27;5.25;;;;;;;17.96;51.86;100291.88;4976730;28;20535;-81
2022/06/04 02:10:05;;;;;;;9.48;5.40;;;;;;;20.79;45.12;100312.03;4976217;28;20133;-81
2022/06/04 02:12:35;;;;;;;12.55;5.05;;;;;;;22.49;41.25;100309.69;4976254;28;20082;-81
2022/06/04 02:15:07;;;;;;;11.50;5.50;;;;;;;24.02;37.97;100299.75;4976586;28;20058;-82
2022/06/04 02:17:37;;;;;;;11.07;5.22;;;;;;;25.12;35.63;100314.16;4958407;28;20153;-81
2022/06/04 02:20:07;;;;;;;9.88;4.75;;;;;;;26.13;33.82;100318.81;4976388;28;20141;-81
2022/06/04 02:22:36;;;;;;;13.70;4.78;;;;;;;27.03;31.85;100312.91;4976138;28;20062;-81
2022/06/04 02:25:09;;;;;;;10.80;4.85;;;;;;;27.77;30.54;100311.25;4976672;28;20058;-81
2022/06/04 02:27:40;;;;;;;6.28;4.63;;;;;;;28.51;29.24;100309.38;4976126;28;20085;-80
2022/06/04 02:30:09;;;;;;;8.55;5.00;;;;;;;29.58;27.35;100321.09;4955417;29;20067;-83
2022/06/04 02:33:17;;;;;;;8.82;4.80;;;;;;;30.56;28.05;100320.53;4956562;28;20054;-81
2022/06/04 02:35:57;;;;;;;12.13;5.10;;;;;;;31.15;25.71;100307.19;4929031;28;20150;-83
2022/06/04 02:38:37;;;;;;;7.93;4.60;;;;;;;31.88;24.23;100313.31;4957016;29;20141;-84
2022/06/04 02:41:28;;;;;;;8.48;4.72;;;;;;;32.73;23.63;100315.50;4956064;29;20063;-82
2022/06/04 02:44:07;;;;;;;13.88;4.93;;;;;;;33.54;22.46;100313.25;4956888;29;20511;-80
2022/06/04 02:46:41;;;;;;;9.73;5.65;;;;;;;34.14;21.50;100321.66;4957251;29;20395;-87
2022/06/04 02:49:14;;;;;;;7.60;4.68;;;;;;;34.56;20.79;100328.78;4957078;29;20178;-82
2022/06/04 02:51:47;;;;;;;8.73;4.40;;;;;;;34.83;20.16;100320.88;4956708;29;20055;-81
2022/06/04 02:54:25;;;;;;;7.30;4.18;;;;;;;35.69;19.56;100322.94;4959031;29;20047;-82
2022/06/04 02:56:56;;;;;;;6.10;4.10;;;;;;;35.82;18.85;100315.31;4959446;29;20054;-81
2022/06/04 02:59:26;;;;;;;7.30;4.25;;;;;;;36.22;18.57;100308.75;4969601;28;20059;-81
2022/06/04 03:02:01;;;;;;;9.32;4.15;;;;;;;37.09;17.55;100325.63;4970712;29;20055;-80
2022/06/04 03:04:44;;;;;;;6.15;4.38;;;;;;;38.01;17.49;100313.41;4975818;29;20039;-81
2022/06/04 03:07:13;;;;;;;8.52;4.10;;;;;;;38.46;16.33;100325.91;4958033;29;20074;-83
2022/06/04 03:09:40;;;;;;;6.78;4.28;;;;;;;38.81;16.01;100334.91;4954342;29;20565;-83
2022/06/04 03:12:09;;;;;;;5.13;4.13;;;;;;;39.56;15.53;100320.34;4955532;29;20054;-83
2022/06/04 03:14:38;;;;;;;9.43;4.72;;;;;;;40.24;14.65;100327.19;4955521;29;20058;-83
2022/06/04 03:17:08;;;;;;;8.45;4.32;;;;;;;40.43;14.39;100317.75;4955413;29;20078;-83
2022/06/04 03:19:36;;;;;;;8.30;4.35;;;;;;;40.44;14.06;100326.81;4955582;29;20054;-84
2022/06/04 03:22:05;;;;;;;6.72;4.10;;;;;;;40.28;14.70;100325.00;4955315;29;20055;-82
2022/06/04 03:24:34;;;;;;;9.00;4.30;;;;;;;40.53;14.32;100312.91;4955492;29;20458;-82
2022/06/04 03:27:01;;;;;;;8.75;4.60;;;;;;;39.89;14.52;100303.91;4952634;28;20066;-84
2022/06/04 03:29:30;;;;;;;6.65;4.35;;;;;;;38.92;15.32;100326.41;4967070;28;20058;-83
2022/06/04 03:31:58;;;;;;;10.23;4.55;;;;;;;38.27;16.04;100296.16;4971463;28;20137;-82
2022/06/04 03:34:27;;;;;;;6.32;4.05;;;;;;;39.67;14.71;100324.63;4956173;28;20062;-82
2022/06/04 03:36:56;;;;;;;6.70;4.07;;;;;;;40.63;14.24;100325.53;4970644;28;20054;-83
2022/06/04 03:39:23;;;;;;;10.60;4.30;;;;;;;41.82;13.27;100310.44;4971664;28;20051;-83
2022/06/04 03:41:51;;;;;;;7.05;4.20;;;;;;;42.87;12.19;100331.28;4972661;28;20050;-83
2022/06/04 03:44:20;;;;;;;7.55;4.22;;;;;;;43.47;11.94;100347.53;4972559;28;20055;-81
2022/06/04 03:46:47;;;;;;;7.90;4.10;;;;;;;43.82;11.83;100342.13;4988354;28;20070;-83
2022/06/04 03:49:15;;;;;;;7.87;4.10;;;;;;;43.70;11.95;100339.09;4987885;28;20057;-82
2022/06/04 03:51:44;;;;;;;7.55;4.60;;;;;;;42.99;12.24;100336.28;4986333;28;20135;-82
2022/06/04 03:54:12;;;;;;;13.13;3.95;;;;;;;42.41;12.45;100331.56;4988852;28;20058;-83
2022/06/04 03:56:39;;;;;;;7.93;4.07;;;;;;;42.00;12.52;100322.97;4987296;28;20084;-82
2022/06/04 03:59:09;;;;;;;8.32;4.18;;;;;;;42.18;12.55;100325.31;4997525;28;20046;-81
2022/06/04 04:01:36;;;;;;;7.65;4.18;;;;;;;42.20;12.33;100323.22;4981288;28;20125;-81
2022/06/04 04:04:06;;;;;;;9.40;3.88;;;;;;;42.61;12.41;100336.47;4988751;28;20158;-84
2022/06/04 04:06:34;;;;;;;6.07;3.78;;;;;;;42.89;12.11;100342.09;4990004;28;20577;-83
2022/06/04 04:09:02;;;;;;;6.05;3.90;;;;;;;42.39;12.39;100335.53;4989440;28;20061;-83
2022/06/04 04:11:30;;;;;;;7.57;3.90;;;;;;;41.88;12.51;100328.88;4973273;28;20062;-84
2022/06/04 04:14:00;;;;;;;8.10;4.38;;;;;;;39.85;13.79;100308.03;4972488;28;20057;-83
2022/06/04 04:16:27;;;;;;;9.80;4.30;;;;;;;36.18;17.11;100339.09;4974618;28;20057;-82
2022/06/04 04:18:55;;;;;;;12.43;4.25;;;;;;;33.31;19.75;100328.75;4991238;28;20551;-82
2022/06/04 04:21:24;;;;;;;10.40;4.07;;;;;;;31.27;22.25;100331.50;4967472;28;20521;-84
2022/06/04 04:23:52;;;;;;;8.93;3.75;;;;;;;30.30;23.62;100300.88;4954419;28;20058;-83
2022/06/04 04:26:20;;;;;;;11.35;3.88;;;;;;;29.72;24.07;100330.91;4971728;28;20090;-82
2022/06/04 04:28:53;;;;;;;16.77;4.63;;;;;;;28.30;26.17;100339.28;4971588;28;20094;-83
2022/06/04 04:31:21;;;;;;;9.75;3.78;;;;;;;27.01;27.72;100336.25;4971909;28;20062;-86
2022/06/04 04:33:50;;;;;;;10.00;3.70;;;;;;;26.41;28.94;100344.09;4971567;28;20133;-83
2022/06/04 04:36:20;;;;;;;9.30;3.88;;;;;;;26.29;29.24;100349.19;4971603;28;20054;-83
2022/06/04 04:38:47;;;;;;;;;;;;;;;25.47;29.09;100347.19;4954562;28;20050;-85
2022/06/04 04:41:16;;;;;;;7.63;3.45;;;;;;;25.67;29.94;100338.16;4954844;28;20463;-85
2022/06/04 04:43:45;;;;;;;6.65;3.25;;;;;;;25.43;30.31;100344.75;4972777;28;20117;-82
2022/06/04 04:46:14;;;;;;;4.55;3.03;;;;;;;24.88;31.08;100332.28;4971893;28;20058;-82
2022/06/04 04:48:47;;;;;;;6.28;3.42;;;;;;;24.66;31.84;100337.81;4972819;28;20082;-83
2022/06/04 04:51:19;;;;;;;9.45;3.55;;;;;;;24.43;32.49;100345.03;4922296;28;20573;-83
2022/06/04 04:53:49;;;;;;;9.95;3.35;;;;;;;24.44;32.67;100338.78;4972730;28;20058;-83
2022/06/04 04:56:19;;;;;;;5.95;3.20;;;;;;;24.52;32.59;100341.09;4987164;28;20512;-80
2022/06/04 04:58:47;;;;;;;5.85;3.35;;;;;;;24.29;32.37;100324.34;4984639;28;20062;-80
2022/06/04 05:01:17;;;;;;;5.82;2.85;;;;;;;23.91;33.03;100339.41;4999189;28;20050;-82
2022/06/04 05:03:47;;;;;;;4.70;3.20;;;;;;;23.73;33.23;100332.19;4963842;28;20513;-82
2022/06/04 05:06:16;;;;;;;5.78;3.03;;;;;;;23.54;33.52;100324.13;4975940;28;20058;-82
2022/06/04 05:08:44;;;;;;;6.35;3.22;;;;;;;23.64;33.75;100333.44;4975111;28;20535;-83
2022/06/04 05:11:18;;;;;;;4.60;3.30;;;;;;;23.73;33.68;100340.19;4969570;28;20532;-87
2022/06/04 05:13:49;;;;;;;6.82;3.47;;;;;;;23.41;34.40;100345.97;4973243;28;20055;-84
2022/06/04 05:16:24;;;;;;;5.13;3.05;;;;;;;23.21;34.64;100356.56;4968362;28;20481;-85
2022/06/04 05:18:52;;;;;;;3.20;2.42;;;;;;;23.04;34.47;100334.16;4975000;28;20043;-84
2022/06/04 05:21:28;;;;;;;4.50;2.63;;;;;;;22.93;34.71;100284.88;4979688;28;20058;-83
2022/06/04 05:23:57;;;;;;;9.80;3.38;;;;;;;23.42;35.70;100347.69;4992483;28;20050;-82
2022/06/04 05:26:23;;;;;;;8.07;3.45;;;;;;;23.33;35.39;100356.06;4985385;28;20481;-82
2022/06/04 05:28:51;;;;;;;4.93;2.90;;;;;;;22.97;34.96;100342.44;4993376;28;20580;-81
2022/06/04 05:31:20;;;;;;;5.53;2.60;;;;;;;22.95;35.60;100352.28;4992286;28;20054;-80
2022/06/04 05:33:49;;;;;;;3.40;3.00;;;;;;;23.06;35.25;100345.63;4993898;28;20081;-81
2022/06/04 05:36:17;;;;;;;6.80;2.97;;;;;;;23.00;35.83;100358.31;4996078;28;20050;-83
2022/06/04 05:38:44;;;;;;;6.38;3.22;;;;;;;23.05;36.09;100343.03;4996786;28;20057;-87
2022/06/04 05:41:16;;;;;;;7.35;3.20;;;;;;;23.17;36.32;100341.66;4979077;28;20053;-83
2022/06/04 05:43:44;;;;;;;9.02;3.17;;;;;;;23.07;36.09;100336.69;5012007;23;20065;-83
2022/06/04 05:46:19;;;;;;;8.32;3.67;;;;;;;23.10;36.08;100354.34;4998024;28;20078;-81
2022/06/04 05:48:47;;;;;;;8.10;3.78;;;;;;;22.87;36.64;100333.97;5003310;28;20416;-80
2022/06/04 05:51:25;;;;;;;6.05;3.40;;;;;;;22.75;37.26;100326.44;5004447;28;20062;-83
2022/06/04 05:53:54;;;;;;;9.07;3.47;;;;;;;22.63;37.03;100286.06;5013130;28;20131;-81
2022/06/04 05:56:25;;;;;;;8.38;3.75;;;;;;;22.68;37.25;100347.13;4998532;28;20535;-85
2022/06/04 05:58:58;;;;;;;5.03;3.15;;;;;;;22.75;37.49;100353.94;5010962;28;20053;-83
2022/06/04 06:01:33;;;;;;;8.57;3.13;;;;;;;22.28;37.65;100298.97;5016015;28;20054;-80
2022/06/04 06:04:03;;;;;;;5.25;3.10;;;;;;;22.44;38.20;100352.47;5015615;28;20058;-80
2022/06/04 06:06:34;;;;;;;7.93;3.47;;;;;;;22.03;37.72;100271.53;5015101;28;20074;-81
2022/06/04 06:09:05;;;;;;;7.30;3.33;;;;;;;22.47;38.15;100339.03;5016163;28;20478;-83
2022/06/04 06:11:35;;;;;;;8.55;3.88;;;;;;;22.45;37.85;100332.03;4994709;28;20046;-82
2022/06/04 06:14:07;;;;;;;8.20;3.25;;;;;;;22.54;37.44;100313.03;4995269;28;20050;-84
2022/06/04 06:16:39;;;;;;;6.00;3.17;;;;;;;22.55;37.60;100330.75;4995220;28;20050;-82
2022/06/04 06:19:11;;;;;;;7.00;2.97;;;;;;;22.63;37.62;100341.97;4995802;28;20054;-82
2022/06/04 06:21:41;;;;;;;6.60;3.20;;;;;;;22.44;37.13;100311.69;4995701;28;20065;-82
2022/06/04 06:24:11;;;;;;;5.40;2.70;;;;;;;22.45;36.99;100314.25;4994964;28;20076;-83
2022/06/04 06:26:43;;;;;;;9.23;2.80;;;;;;;22.58;36.93;100351.06;4995627;28;20061;-82
2022/06/04 06:29:13;;;;;;;5.80;2.63;;;;;;;22.57;36.07;100338.69;4995692;28;20209;-84
2022/06/04 06:31:42;;;;;;;3.70;2.28;;;;;;;22.77;36.00;100345.91;4998815;28;20065;-81
2022/06/04 06:34:12;;;;;;;6.25;2.55;;;;;;;22.80;36.34;100321.78;4997794;28;20149;-82
2022/06/04 06:36:43;;;;;;;5.13;2.40;;;;;;;22.82;34.81;100322.59;5001467;28;20054;-82
2022/06/04 06:39:10;;;;;;;3.95;2.40;;;;;;;22.41;35.28;100325.97;4995653;28;20050;-83
2022/06/04 06:41:39;;;;;;;2.78;2.13;;;;;;;22.20;35.66;100324.06;4978715;28;20046;-80
2022/06/04 06:44:11;;;;;;;3.83;2.08;;;;;;;22.14;35.41;100317.19;4997209;28;20054;-80
2022/06/04 06:46:47;;;;;;;5.30;2.10;;;;;;;22.23;35.13;100332.84;5011781;28;20117;-80
2022/06/04 06:49:22;;;;;;;3.05;2.28;;;;;;;22.11;35.74;100322.63;5011396;28;20050;-83
2022/06/04 06:51:56;;;;;;;3.10;2.10;;;;;;;22.26;35.76;100323.88;5030094;28;20162;-81
2022/06/04 06:54:29;;;;;;;3.65;1.88;;;;;;;22.20;35.00;100319.63;4995924;28;20062;-83
2022/06/04 06:56:57;;;;;;;3.10;1.92;;;;;;;22.35;34.90;100333.31;4992891;28;20050;-83
2022/06/04 06:59:25;;;;;;;5.70;2.17;;;;;;;22.27;35.19;100307.00;5002114;28;20061;-81
2022/06/04 07:01:55;;;;;;;4.95;2.40;;;;;;;22.51;35.76;100331.81;5014275;28;20103;-82
2022/06/04 07:04:27;;;;;;;4.00;2.17;;;;;;;22.33;34.54;100338.69;5013848;28;20046;-81
2022/06/04 07:06:59;;;;;;;2.33;2.10;;;;;;;21.96;35.18;100305.47;5014351;28;20515;-82
2022/06/04 07:09:33;;;;;;;3.08;2.15;;;;;;;21.62;36.01;100327.94;4991204;28;20042;-82
2022/06/04 07:12:06;;;;;;;4.63;2.10;;;;;;;21.70;37.03;100309.03;4999621;28;20050;-84
2022/06/04 07:14:36;;;;;;;3.63;2.40;;;;;;;22.16;35.96;100323.34;4979535;28;20050;-81
2022/06/04 07:17:05;;;;;;;2.42;1.98;;;;;;;22.24;35.79;100318.63;4980554;28;20061;-83
2022/06/04 07:19:38;;;;;;;2.88;2.10;;;;;;;22.12;35.54;100297.75;5011799;28;20424;-81
2022/06/04 07:22:07;;;;;;;4.47;2.40;;;;;;;22.07;35.33;100281.97;4980055;28;20088;-81
2022/06/04 07:24:36;;;;;;;3.47;2.33;;;;;;;22.37;35.64;100336.78;5014081;28;20046;-85
2022/06/04 07:27:08;;;;;;;2.60;2.40;;;;;;;22.55;34.93;100317.44;5016909;28;20057;-83
2022/06/04 07:29:35;;;;;;;3.72;2.80;;;;;;;22.73;35.28;100338.94;5024982;28;20092;-82
2022/06/04 07:32:04;;;;;;;4.78;2.50;;;;;;;22.73;35.13;100315.84;4996725;28;20507;-81
2022/06/04 07:34:33;;;;;;;5.28;2.80;;;;;;;22.72;34.43;100289.31;5013609;28;20422;-80
2022/06/04 07:37:02;;;;;;;4.55;2.88;;;;;;;22.94;34.37;100326.59;4996317;28;20054;-81
2022/06/04 07:39:30;;;;;;;3.10;2.50;;;;;;;23.00;33.77;100329.91;5012421;28;20058;-81
2022/06/04 07:41:58;;;;;;;3.25;2.22;;;;;;;22.97;33.37;100331.78;5012187;28;20192;-82
2022/06/04 07:44:27;;;;;;;2.50;2.25;;;;;;;22.55;33.67;100276.66;5013831;28;20057;-81
2022/06/04 07:46:56;;;;;;;4.72;2.10;;;;;;;22.94;33.51;100311.47;5013353;28;20053;-82
2022/06/04 07:49:26;;;;;;;5.97;2.30;;;;;;;23.28;33.54;100320.75;4996171;28;20058;-83
2022/06/04 07:51:55;;;;;;;3.17;2.00;;;;;;;23.17;33.35;100310.56;5011302;28;20045;-83
2022/06/04 07:54:23;;;;;;;4.25;2.40;;;;;;;22.85;33.49;100325.16;5013251;28;20092;-81
2022/06/04 07:56:53;;;;;;;4.82;2.05;;;;;;;22.71;32.90;100285.75;5013423;28;20045;-82
2022/06/04 07:59:24;;;;;;;4.10;2.42;;;;;;;22.91;32.85;100292.97;5013236;28;20507;-85
2022/06/04 08:01:52;;;;;;;2.33;2.13;;;;;;;23.01;33.37;100298.78;4996230;28;20081;-84
2022/06/04 08:04:21;;;;;;;5.88;1.95;;;;;;;23.20;32.99;100288.22;5013496;28;20054;-81
2022/06/04 08:06:50;;;;;;;3.45;2.45;;;;;;;23.48;32.56;100311.91;5013959;28;20081;-83
2022/06/04 08:09:18;;;;;;;3.58;2.08;;;;;;;23.51;32.62;100302.00;5013136;28;20057;-85
2022/06/04 08:11:46;;;;;;;7.70;2.40;;;;;;;23.81;32.02;100304.28;4995733;28;20054;-84
2022/06/04 08:14:27;;;;;;;4.13;2.78;;;;;;;24.10;31.99;100307.44;5012964;28;20519;-84
2022/06/04 08:18:05;;;;;;;5.97;2.45;;;;;;;23.66;31.66;100227.56;5000359;28;20058;-83
2022/06/04 08:20:43;;;;;;;5.03;3.05;;;;;;;23.85;32.48;100311.19;4954415;28;20109;-82
2022/06/04 08:23:22;;;;;;;5.72;2.50;;;;;;;24.04;31.99;100311.22;4971323;28;20528;-84
2022/06/04 08:26:27;;;;;;;;;;;;;;;23.96;32.67;100293.84;4955541;28;20102;-84
2022/06/04 08:33:32;;;;;;;6.07;2.78;;;;;;;24.03;31.40;100224.13;4951362;28;20046;-84
2022/06/04 08:36:36;;;;;;;3.90;2.35;;;;;;;24.73;31.43;100293.81;4959751;28;20059;-84
2022/06/04 08:39:28;;;;;;;6.03;2.20;;;;;;;24.68;30.96;100264.66;4959146;28;20051;-87
2022/06/04 08:43:32;;;;;;;4.20;2.65;;;;;;;25.03;30.89;100259.38;4936127;29;20113;-87
2022/06/04 08:47:25;;;;;;;6.90;2.58;;;;;;;24.81;31.76;100290.78;4904095;29;20063;-84
2022/06/04 08:51:05;;;;;;;;;;;;;;;;;;;;;
2022/06/04 08:58:47;;;;;;;;;;;;;;;23.40;33.58;100280.25;4966690;28;20144;-82
2022/06/04 09:02:40;;;;;;;5.53;2.85;;;;;;;23.24;33.89;100280.03;5013690;28;20359;-84
2022/06/04 09:06:18;;;;;;;6.60;3.50;;;;;;;23.22;33.68;100230.41;5021487;28;20104;-84
2022/06/04 09:09:57;;;;;;;8.00;4.97;;;;;;;23.65;32.98;100272.03;4999683;28;20157;-82
2022/06/04 09:13:50;;;;;;;7.38;3.40;;;;;;;23.45;32.33;100186.78;4983412;28;20436;-84
2022/06/04 09:17:33;;;;;;;8.63;2.95;;;;;;;23.75;31.82;100205.84;4961276;28;20117;-84
2022/06/04 09:20:55;;;;;;;5.38;3.20;;;;;;;24.06;32.36;100260.47;4946059;28;20057;-83
2022/06/04 09:27:38;;;;;;;6.15;2.28;;;;;;;23.80;31.66;100211.84;4996824;28;20104;-84
2022/06/04 09:30:46;;;;;;;14.32;8.20;;;;;;;23.52;32.19;100202.41;4995790;28;20100;-83
2022/06/04 09:33:51;;;;;;;8.23;4.30;;;;;;;24.36;31.79;100250.16;4996992;28;20145;-82
2022/06/04 09:37:22;;;;;;;3.67;2.80;;;;;;;24.26;30.65;100196.38;4944358;29;20063;-86
2022/06/04 09:40:26;;;;;;;3.80;2.40;;;;;;;23.66;31.07;100163.56;4980522;28;20134;-83
2022/06/04 09:43:14;;;;;;;6.10;2.92;;;;;;;24.12;30.21;100210.34;4997394;28;20058;-83
2022/06/04 09:46:09;;;;;;;5.20;2.25;;;;;;;24.47;30.90;100236.31;4997643;28;20137;-83
2022/06/04 09:48:51;;;;;;;4.97;3.53;;;;;;;24.65;30.68;100237.22;4997244;28;20046;-83
2022/06/04 09:51:23;;;;;;;5.60;3.70;;;;;;;24.76;30.24;100242.03;4999280;28;20054;-82
2022/06/04 09:54:02;;;;;;;6.90;2.97;;;;;;;24.25;30.69;100225.78;5011518;28;20062;-83
2022/06/04 09:56:42;;;;;;;3.97;2.28;;;;;;;24.01;31.25;100246.50;5010039;28;20076;-83
2022/06/04 09:59:24;;;;;;;3.78;2.60;;;;;;;24.05;31.25;100253.44;5003079;28;20141;-83
2022/06/04 10:01:57;;;;;;;5.30;2.60;;;;;;;24.25;31.38;100240.00;4979140;28;20149;-82
2022/06/04 10:04:44;;;;;;;4.68;3.22;;;;;;;24.42;30.72;100227.66;4995334;28;20065;-83
2022/06/04 10:07:27;;;;;;;5.07;2.30;;;;;;;24.83;30.22;100243.50;4995572;28;20050;-85
2022/06/04 10:10:28;;;;;;;4.28;2.85;;;;;;;25.01;29.19;100212.31;4996340;28;20050;-85
2022/06/04 10:15:48;;;;;;;12.82;7.22;;;;;;;24.55;28.98;100162.06;5014441;28;20050;-85
2022/06/04 10:18:25;;;;;;;7.03;3.30;;;;;;;24.88;29.82;100242.31;5015172;28;20050;-83
2022/06/04 10:20:57;;;;;;;4.85;2.38;;;;;;;24.77;29.53;100238.44;5015366;28;20049;-84
2022/06/04 10:23:28;;;;;;;3.28;2.53;;;;;;;25.09;29.00;100231.50;5015635;28;20077;-83
2022/06/04 10:26:38;;;;;;;3.85;2.90;;;;;;;25.18;29.08;100209.63;5015794;28;20057;-84
2022/06/04 10:29:45;;;;;;;3.25;2.35;;;;;;;25.50;28.64;100234.72;5014419;28;20096;-83
2022/06/04 10:32:31;;;;;;;4.53;2.20;;;;;;;25.66;28.61;100240.13;5033826;28;20034;-82
2022/06/04 10:35:47;;;;;;;3.97;2.28;;;;;;;25.69;28.25;100237.28;5033174;28;20048;-83
2022/06/04 10:38:32;;;;;;;3.88;2.40;;;;;;;25.73;28.32;100229.97;5006823;28;20049;-84
2022/06/04 10:41:15;;;;;;;4.72;2.45;;;;;;;25.51;28.77;100225.75;5013745;28;20089;-84
2022/06/04 10:44:13;;;;;;;4.78;2.38;;;;;;;25.36;29.06;100228.34;5014099;28;20148;-82
2022/06/04 10:47:07;;;;;;;7.53;2.53;;;;;;;25.17;29.50;100220.38;5012973;28;20057;-83
2022/06/04 10:50:12;;;;;;;8.18;3.08;;;;;;;24.90;29.89;100221.72;5012785;28;20057;-82
2022/06/04 10:53:08;;;;;;;4.32;2.80;;;;;;;24.31;30.74;100221.03;5012286;28;20073;-84
2022/06/04 10:55:42;;;;;;;8.45;6.82;;;;;;;24.08;30.65;100215.91;5013303;28;20053;-85
2022/06/04 10:58:31;;;;;;;5.07;3.67;;;;;;;24.01;31.01;100217.16;5011736;28;20041;-84
2022/06/04 11:01:12;;;;;;;2.75;2.40;;;;;;;23.95;31.09;100204.94;4997462;28;20546;-83
2022/06/04 11:04:01;;;;;;;4.25;2.40;;;;;;;23.92;31.38;100176.63;5014044;28;20060;-83
2022/06/04 11:06:39;;;;;;;2.20;2.08;;;;;;;24.08;30.68;100183.91;4997065;28;20420;-85
2022/06/04 11:09:14;;;;;;;3.35;2.30;;;;;;;24.59;30.23;100187.69;4994160;28;20053;-84
2022/06/04 11:11:57;;;;;;;5.25;2.20;;;;;;;24.97;29.23;100203.56;4993891;28;20523;-83
2022/06/04 11:14:58;;;;;;;4.65;3.00;;;;;;;25.20;29.34;100205.09;4993787;28;20062;-83
2022/06/04 11:17:53;;;;;;;4.65;2.90;;;;;;;25.15;29.39;100204.44;4991772;28;20050;-83
2022/06/04 11:20:27;;;;;;;2.58;2.38;;;;;;;25.23;29.07;100218.31;4986840;28;20088;-85
2022/06/04 11:23:18;;;;;;;4.30;2.50;;;;;;;25.17;29.16;100217.72;4994181;28;20096;-83
2022/06/04 11:25:50;;;;;;;4.75;3.30;;;;;;;24.53;29.35;100183.50;4993651;28;20141;-83
2022/06/04 11:28:27;;;;;;;7.65;3.63;;;;;;;24.51;29.75;100197.88;4994436;28;20058;-83
2022/06/04 11:31:23;;;;;;;7.50;3.70;;;;;;;24.50;29.71;100204.13;4977220;28;20038;-82
2022/06/04 11:34:51;;;;;;;4.20;2.60;;;;;;;24.22;29.81;100186.78;5012493;28;20053;-83
2022/06/04 11:37:28;;;;;;;4.32;3.00;;;;;;;24.36;30.18;100203.94;4972415;28;20428;-87
2022/06/04 11:39:58;;;;;;;8.27;3.53;;;;;;;24.47;30.15;100204.25;5008543;28;20057;-83
2022/06/04 11:42:29;;;;;;;7.20;2.58;;;;;;;24.50;29.67;100202.34;5012535;28;20077;-85
2022/06/04 11:45:14;;;;;;;4.25;2.20;;;;;;;24.54;29.50;100203.03;5013616;28;20061;-83
2022/06/04 11:47:56;;;;;;;4.80;2.85;;;;;;;24.39;29.58;100188.59;5013942;28;20549;-84
2022/06/04 11:50:35;;;;;;;7.75;4.10;;;;;;;24.21;30.09;100187.69;5018614;28;20054;-81
2022/06/04 11:53:39;;;;;;;8.55;3.42;;;;;;;24.02;30.26;100176.19;5014065;28;20050;-87
2022/06/04 11:56:23;;;;;;;5.07;2.53;;;;;;;24.17;29.26;100187.94;4998516;28;20141;-83
2022/06/04 11:59:18;;;;;;;6.70;4.70;;;;;;;24.47;29.22;100181.09;5012801;28;20057;-81
2022/06/04 12:02:03;;;;;;;5.30;3.42;;;;;;;24.88;28.76;100180.00;5012688;28;20427;-84
2022/06/04 12:04:39;;;;;;;7.93;5.30;;;;;;;25.05;29.20;100182.66;5012637;28;20057;-82
2022/06/04 12:07:18;;;;;;;8.75;3.40;;;;;;;25.15;29.34;100177.72;5017212;28;20057;-83
2022/06/04 12:09:57;;;;;;;8.13;5.68;;;;;;;25.45;28.76;100163.72;5017148;28;20050;-85
2022/06/04 12:12:36;;;;;;;15.32;10.45;;;;;;;25.68;27.99;100178.50;5019247;28;20057;-86
2022/06/04 12:15:18;;;;;;;9.68;5.95;;;;;;;25.03;28.57;100139.13;5016347;28;20145;-87
2022/06/04 12:17:54;;;;;;;10.18;4.97;;;;;;;24.93;29.11;100160.13;5018755;28;20081;-88
2022/06/04 12:26:26;;;;;;;6.05;3.13;;;;;;;24.79;29.97;100164.44;5016983;28;20523;-84
2022/06/04 12:28:55;;;;;;;6.32;3.05;;;;;;;24.68;29.94;100143.63;5015910;28;20495;-82
2022/06/04 12:31:36;;;;;;;7.07;2.67;;;;;;;24.65;29.60;100144.66;5000654;28;20080;-83
2022/06/04 12:34:40;;;;;;;5.03;2.33;;;;;;;24.95;29.15;100162.69;4996537;28;20097;-84
2022/06/04 12:37:21;;;;;;;7.88;3.00;;;;;;;25.07;28.67;100121.13;4965217;28;20089;-84
2022/06/04 12:40:26;;;;;;;3.77;2.43;;;;;;;25.28;28.70;100164.63;4979057;28;20070;-84
2022/06/04 12:43:22;;;;;;;2.90;2.60;;;;;;;25.33;28.47;100136.66;4995868;28;20054;-87
2022/06/04 12:45:52;;;;;;;4.03;2.83;;;;;;;25.43;28.92;100150.44;4997559;28;20054;-82
2022/06/04 12:48:28;;;;;;;6.13;2.92;;;;;;;25.50;29.00;100157.16;5001456;28;20085;-82